Time;durP1;ratioP1;P1;durP2;ratioP2;P2;SDS_P1;SDS_P2;PMS_P1;PMS_P2;Temp;Humidity;BMP_temperature;BMP_pressure;BME280_temperature;BME280_humidity;BME280_pressure;Samples;Min_cycle;Max_cycle;Signal;HPM_P1;HPM_P2
2021/07/07 00:00:38;;;;;;;2.20;0.90;;;;;;;18.53;100.00;100577.09;4952354;28;20233;-77
2021/07/07 00:03:04;;;;;;;3.58;0.90;;;;;;;18.57;100.00;100578.06;4953231;28;20179;-77
2021/07/07 00:05:29;;;;;;;3.63;1.00;;;;;;;18.57;100.00;100584.41;4977274;28;20235;-77
2021/07/07 00:07:57;;;;;;;3.97;1.00;;;;;;;18.48;100.00;100591.06;4953399;28;20252;-77
2021/07/07 00:10:22;;;;;;;2.95;0.80;;;;;;;18.32;100.00;100602.88;4952923;28;20663;-76
2021/07/07 00:12:48;;;;;;;4.65;0.90;;;;;;;18.29;100.00;100598.00;4941496;28;20209;-76
2021/07/07 00:15:18;;;;;;;3.13;1.15;;;;;;;18.28;100.00;100607.41;4950559;28;20190;-78
2021/07/07 00:17:47;;;;;;;3.42;1.00;;;;;;;18.22;100.00;100608.69;4960350;28;20696;-77
2021/07/07 00:20:14;;;;;;;6.55;1.00;;;;;;;18.18;100.00;100625.00;4967817;28;20181;-78
2021/07/07 00:22:42;;;;;;;3.33;1.05;;;;;;;18.18;100.00;100624.22;4983382;28;20185;-78
2021/07/07 00:25:11;;;;;;;4.00;0.90;;;;;;;18.13;100.00;100611.44;4957080;28;20203;-78
2021/07/07 00:27:36;;;;;;;4.10;0.80;;;;;;;18.12;100.00;100620.00;4940463;29;20616;-78
2021/07/07 00:30:04;;;;;;;3.78;1.20;;;;;;;18.06;100.00;100634.19;4969353;28;20206;-76
2021/07/07 00:32:29;;;;;;;1.85;0.90;;;;;;;18.08;100.00;100640.22;4956466;28;20655;-77
2021/07/07 00:34:59;;;;;;;2.00;0.93;;;;;;;18.04;100.00;100644.69;4948956;28;20230;-76
2021/07/07 00:37:27;;;;;;;3.85;1.10;;;;;;;18.05;100.00;100640.84;4969184;28;20279;-77
2021/07/07 00:39:53;;;;;;;2.30;0.90;;;;;;;17.93;100.00;100633.22;4940641;28;20207;-76
2021/07/07 00:42:19;;;;;;;2.03;0.88;;;;;;;17.94;100.00;100628.53;4971383;28;20226;-76
2021/07/07 00:44:44;;;;;;;3.17;1.00;;;;;;;18.01;100.00;100645.38;4955969;28;20206;-77
2021/07/07 00:47:10;;;;;;;1.90;1.10;;;;;;;18.07;100.00;100644.06;4956446;28;20696;-76
2021/07/07 00:49:41;;;;;;;2.63;1.00;;;;;;;17.99;100.00;100642.13;4974426;28;20206;-78
2021/07/07 00:52:09;;;;;;;4.15;1.20;;;;;;;18.02;100.00;100650.53;4967664;28;20707;-76
2021/07/07 00:54:40;;;;;;;2.85;1.15;;;;;;;18.01;100.00;100645.38;4972719;28;20210;-76
2021/07/07 00:57:09;;;;;;;2.88;1.00;;;;;;;17.92;100.00;100641.78;4956515;28;20222;-76
2021/07/07 00:59:34;;;;;;;3.75;0.95;;;;;;;17.91;100.00;100648.41;4951722;29;20207;-76
2021/07/07 01:02:03;;;;;;;2.40;0.90;;;;;;;17.81;100.00;100651.47;4951948;28;20233;-77
2021/07/07 01:04:29;;;;;;;2.08;1.20;;;;;;;17.89;100.00;100653.41;4955093;28;20214;-76
2021/07/07 01:06:54;;;;;;;3.28;1.20;;;;;;;17.97;100.00;100644.38;4943631;28;20237;-77
2021/07/07 01:09:22;;;;;;;2.70;0.80;;;;;;;17.79;100.00;100648.22;4972316;28;20233;-77
2021/07/07 01:11:48;;;;;;;1.92;1.00;;;;;;;17.93;100.00;100648.88;4954990;28;20226;-77
2021/07/07 01:14:16;;;;;;;2.22;1.10;;;;;;;17.91;100.00;100649.22;4956369;28;20218;-77
2021/07/07 01:16:44;;;;;;;2.17;1.10;;;;;;;17.77;100.00;100658.72;4971962;28;20277;-77
2021/07/07 01:19:18;;;;;;;5.55;1.13;;;;;;;17.72;100.00;100658.88;4972000;28;20218;-77
2021/07/07 01:21:49;;;;;;;2.00;1.08;;;;;;;17.67;100.00;100671.94;4980707;28;20292;-77
2021/07/07 01:24:18;;;;;;;3.72;1.10;;;;;;;17.62;100.00;100659.16;4964459;28;20181;-77
2021/07/07 01:26:44;;;;;;;1.98;1.20;;;;;;;17.35;100.00;100669.56;4955816;28;20224;-77
2021/07/07 01:29:14;;;;;;;2.45;1.17;;;;;;;17.45;100.00;100672.84;4971478;28;20198;-77
2021/07/07 01:31:46;;;;;;;3.47;1.10;;;;;;;17.39;100.00;100671.34;4970586;28;20313;-77
2021/07/07 01:34:12;;;;;;;1.25;1.08;;;;;;;17.29;100.00;100664.50;4979524;28;20288;-77
2021/07/07 01:36:37;;;;;;;1.95;1.17;;;;;;;17.20;100.00;100660.94;4982821;28;20629;-77
2021/07/07 01:39:07;;;;;;;2.10;1.05;;;;;;;17.13;100.00;100655.03;4982853;28;20225;-76
2021/07/07 01:41:34;;;;;;;3.20;1.17;;;;;;;16.96;100.00;100649.44;4938814;28;20238;-77
2021/07/07 01:43:59;;;;;;;2.53;1.20;;;;;;;17.01;100.00;100641.91;4940043;28;20310;-77
2021/07/07 01:46:25;;;;;;;3.28;1.30;;;;;;;17.11;100.00;100635.31;4971646;28;20308;-75
2021/07/07 01:48:53;;;;;;;3.25;1.15;;;;;;;17.12;100.00;100643.25;4958505;28;20280;-76
2021/07/07 01:51:19;;;;;;;3.53;1.27;;;;;;;17.06;100.00;100643.69;4969756;28;20228;-75
2021/07/07 01:53:45;;;;;;;3.95;1.40;;;;;;;17.03;100.00;100644.31;4986782;28;20210;-76
2021/07/07 01:56:11;;;;;;;4.18;1.30;;;;;;;17.00;100.00;100634.78;4954867;28;20218;-76
2021/07/07 01:58:38;;;;;;;3.50;1.30;;;;;;;16.95;100.00;100634.09;4955122;28;20668;-77
2021/07/07 02:01:05;;;;;;;5.03;1.50;;;;;;;16.95;100.00;100632.16;4953769;28;20234;-77
2021/07/07 02:03:30;;;;;;;3.40;1.37;;;;;;;16.94;100.00;100637.97;4972021;28;20197;-77
2021/07/07 02:05:59;;;;;;;2.63;1.48;;;;;;;16.97;100.00;100645.56;4978848;28;20222;-76
2021/07/07 02:08:26;;;;;;;3.53;1.40;;;;;;;16.93;100.00;100635.53;4955270;28;20206;-76
2021/07/07 02:10:52;;;;;;;4.43;1.30;;;;;;;16.86;100.00;100638.72;4970242;28;20260;-76
2021/07/07 02:13:20;;;;;;;2.83;1.30;;;;;;;16.69;100.00;100646.03;4952301;28;20244;-77
2021/07/07 02:15:46;;;;;;;3.50;1.42;;;;;;;16.60;100.00;100635.00;4951054;29;20338;-77
2021/07/07 02:18:12;;;;;;;4.07;1.48;;;;;;;16.76;100.00;100638.19;4953434;29;20621;-76
2021/07/07 02:20:40;;;;;;;3.65;1.50;;;;;;;16.65;100.00;100650.53;4978484;28;20232;-77
2021/07/07 02:23:09;;;;;;;5.03;1.75;;;;;;;16.77;100.00;100637.84;4949963;28;20178;-77
2021/07/07 02:25:38;;;;;;;1.92;1.48;;;;;;;16.75;100.00;100631.88;4951634;28;20226;-77
2021/07/07 02:28:04;;;;;;;2.22;1.40;;;;;;;16.73;100.00;100634.13;4941181;28;20217;-76
2021/07/07 02:30:35;;;;;;;2.67;1.48;;;;;;;16.63;100.00;100637.13;4944462;28;20256;-77
2021/07/07 02:33:01;;;;;;;5.68;1.55;;;;;;;16.52;100.00;100636.84;4956441;28;20914;-77
2021/07/07 02:35:30;;;;;;;2.45;1.55;;;;;;;16.43;100.00;100636.81;4951679;28;20222;-77
2021/07/07 02:37:56;;;;;;;2.78;1.40;;;;;;;16.52;100.00;100636.84;4952470;28;20222;-76
2021/07/07 02:40:25;;;;;;;2.80;1.40;;;;;;;16.55;100.00;100631.56;4936351;28;20217;-76
2021/07/07 02:42:54;;;;;;;4.50;1.70;;;;;;;16.32;100.00;100629.94;4970596;28;20198;-77
2021/07/07 02:45:22;;;;;;;2.17;1.60;;;;;;;16.23;100.00;100642.75;4938825;28;20249;-76
2021/07/07 02:47:47;;;;;;;3.60;1.53;;;;;;;16.21;100.00;100641.47;4938722;28;20185;-76
2021/07/07 02:50:20;;;;;;;3.40;1.70;;;;;;;16.25;100.00;100653.44;4952194;28;20201;-77
2021/07/07 02:52:46;;;;;;;3.58;1.33;;;;;;;16.23;100.00;100656.47;4953942;28;20313;-77
2021/07/07 02:55:15;;;;;;;5.80;1.60;;;;;;;16.50;100.00;100653.66;4969903;28;20187;-76
2021/07/07 02:58:01;;;;;;;3.10;1.50;;;;;;;16.56;100.00;100654.34;4970612;28;20198;-76
2021/07/07 03:00:29;;;;;;;3.20;1.40;;;;;;;16.36;100.00;100663.03;4969282;28;20238;-76
2021/07/07 03:03:14;;;;;;;2.63;1.48;;;;;;;16.49;100.00;100654.75;4954358;28;20217;-76
2021/07/07 03:05:46;;;;;;;4.70;1.40;;;;;;;16.43;100.00;100661.50;4955896;28;20664;-76
2021/07/07 03:08:12;;;;;;;3.20;1.70;;;;;;;16.56;100.00;100663.38;4970497;28;20210;-77
2021/07/07 03:10:38;;;;;;;1.92;1.45;;;;;;;16.38;100.00;100663.53;4968942;28;20258;-77
2021/07/07 03:13:04;;;;;;;4.22;1.70;;;;;;;16.29;100.00;100665.38;4954136;28;20207;-77
2021/07/07 03:15:32;;;;;;;3.90;1.70;;;;;;;16.21;100.00;100652.44;4969966;28;20272;-75
2021/07/07 03:17:57;;;;;;;5.05;1.90;;;;;;;16.04;100.00;100646.72;4954634;28;20273;-76
2021/07/07 03:20:30;;;;;;;5.35;1.92;;;;;;;16.04;100.00;100652.22;4970406;28;20707;-76
2021/07/07 03:23:00;;;;;;;3.22;2.08;;;;;;;15.97;100.00;100657.31;4974081;28;20190;-76
2021/07/07 03:25:26;;;;;;;5.32;2.03;;;;;;;15.91;100.00;100668.69;4977154;28;20190;-76
2021/07/07 03:27:51;;;;;;;5.63;1.65;;;;;;;16.15;100.00;100674.72;4969148;28;20536;-76
2021/07/07 03:30:19;;;;;;;2.38;1.70;;;;;;;16.14;100.00;100673.94;4963236;28;20194;-76
2021/07/07 03:32:49;;;;;;;2.20;1.60;;;;;;;16.20;100.00;100672.72;4954112;28;20226;-75
2021/07/07 03:35:15;;;;;;;2.40;1.93;;;;;;;16.30;100.00;100680.69;4963176;28;20190;-76
2021/07/07 03:37:43;;;;;;;3.70;1.90;;;;;;;16.17;100.00;100682.34;4954409;28;20837;-76
2021/07/07 03:40:09;;;;;;;3.30;1.80;;;;;;;16.17;100.00;100684.25;4952424;28;21137;-75
2021/07/07 03:42:37;;;;;;;2.38;1.60;;;;;;;16.00;100.00;100692.31;4971655;28;20186;-77
2021/07/07 03:45:09;;;;;;;1.85;1.60;;;;;;;16.07;100.00;100689.97;4943229;28;20887;-76
2021/07/07 03:47:35;;;;;;;3.80;1.67;;;;;;;16.28;100.00;100693.91;4977928;28;20238;-76
2021/07/07 03:50:00;;;;;;;2.58;1.80;;;;;;;16.33;100.00;100699.28;4948297;28;20236;-76
2021/07/07 03:52:26;;;;;;;3.30;1.70;;;;;;;16.28;100.00;100704.88;4934150;28;20222;-77
2021/07/07 03:54:52;;;;;;;2.22;1.65;;;;;;;16.14;100.00;100706.81;5001895;28;20173;-77
2021/07/07 03:57:22;;;;;;;1.63;1.45;;;;;;;16.13;100.00;100707.13;4957032;28;20245;-76
2021/07/07 03:59:50;;;;;;;3.08;1.70;;;;;;;16.07;100.00;100717.38;4982213;28;20209;-77
2021/07/07 04:02:16;;;;;;;2.00;1.58;;;;;;;16.04;100.00;100717.97;4980631;28;20226;-76
2021/07/07 04:04:43;;;;;;;3.70;1.65;;;;;;;16.04;100.00;100728.94;4971603;28;20193;-76
2021/07/07 04:07:12;;;;;;;2.97;1.85;;;;;;;15.94;100.00;100733.84;4957741;28;20218;-76
2021/07/07 04:09:40;;;;;;;3.72;2.00;;;;;;;16.11;100.00;100729.34;4973908;28;20213;-76
2021/07/07 04:12:06;;;;;;;4.65;1.83;;;;;;;16.13;100.00;100732.59;4972817;28;20225;-77
2021/07/07 04:14:32;;;;;;;4.57;1.80;;;;;;;16.16;100.00;100732.78;4925504;28;20214;-75
2021/07/07 04:16:58;;;;;;;2.92;1.60;;;;;;;16.15;100.00;100735.84;4974050;28;20214;-76
2021/07/07 04:19:25;;;;;;;2.40;1.60;;;;;;;16.25;100.00;100736.47;4973027;28;20293;-77
2021/07/07 04:21:51;;;;;;;2.65;1.63;;;;;;;16.32;100.00;100725.91;4956629;28;20229;-76
2021/07/07 04:24:20;;;;;;;2.97;1.50;;;;;;;16.38;100.00;100737.56;4976631;28;20182;-76
2021/07/07 04:26:50;;;;;;;3.58;2.17;;;;;;;16.51;100.00;100737.53;4983780;28;20248;-77
2021/07/07 04:29:19;;;;;;;3.20;1.60;;;;;;;16.62;100.00;100734.25;4957772;28;20237;-76
2021/07/07 04:31:44;;;;;;;2.63;1.67;;;;;;;16.63;100.00;100744.09;4952433;28;20246;-76
2021/07/07 04:34:10;;;;;;;1.60;1.38;;;;;;;16.75;100.00;100744.34;4967187;28;20920;-76
2021/07/07 04:36:35;;;;;;;3.38;1.60;;;;;;;16.97;100.00;100745.16;4962110;28;20712;-76
2021/07/07 04:39:03;;;;;;;2.00;1.58;;;;;;;17.06;100.00;100748.00;4957441;28;20695;-77
2021/07/07 04:41:29;;;;;;;4.75;1.48;;;;;;;17.05;100.00;100749.09;4939707;28;20273;-75
2021/07/07 04:43:57;;;;;;;3.13;1.90;;;;;;;16.85;100.00;100748.78;4974150;28;20193;-75
2021/07/07 04:46:25;;;;;;;2.08;1.35;;;;;;;16.88;100.00;100735.25;4972225;28;20230;-75
2021/07/07 04:48:55;;;;;;;3.92;1.85;;;;;;;16.83;100.00;100740.06;4973162;28;20722;-76
2021/07/07 04:51:21;;;;;;;2.10;1.50;;;;;;;16.90;100.00;100738.50;4968287;28;20249;-76
2021/07/07 04:53:46;;;;;;;2.80;1.35;;;;;;;16.95;100.00;100752.91;4943186;28;20339;-76
2021/07/07 04:56:14;;;;;;;4.22;1.83;;;;;;;17.07;100.00;100752.38;4991472;28;20233;-75
2021/07/07 04:58:42;;;;;;;1.77;1.42;;;;;;;17.12;100.00;100752.22;4937883;29;20611;-75
2021/07/07 05:01:08;;;;;;;4.40;1.30;;;;;;;17.11;100.00;100750.63;4952057;29;20246;-75
2021/07/07 05:03:39;;;;;;;1.75;1.30;;;;;;;17.13;100.00;100749.19;4954132;28;20233;-74
2021/07/07 05:06:18;;;;;;;3.28;1.50;;;;;;;17.34;100.00;100755.78;4969617;28;20217;-75
2021/07/07 05:08:43;;;;;;;3.42;1.50;;;;;;;17.28;100.00;100750.75;4974249;28;20206;-75
2021/07/07 05:11:11;;;;;;;5.22;1.75;;;;;;;17.28;100.00;100745.28;4939516;28;20229;-74
2021/07/07 05:13:39;;;;;;;2.58;1.42;;;;;;;17.36;100.00;100748.88;4970309;28;20221;-75
2021/07/07 05:16:05;;;;;;;3.28;1.40;;;;;;;17.44;100.00;100750.84;4958293;28;20229;-75
2021/07/07 05:18:30;;;;;;;1.98;1.30;;;;;;;17.53;100.00;100754.47;4940422;28;20576;-76
2021/07/07 05:20:58;;;;;;;2.63;1.40;;;;;;;17.62;100.00;100749.84;4959355;28;20247;-74
2021/07/07 05:23:33;;;;;;;2.35;1.27;;;;;;;17.66;100.00;100752.75;4958123;28;20182;-76
2021/07/07 05:25:58;;;;;;;4.38;1.55;;;;;;;17.69;100.00;100758.44;4929917;29;20288;-76
2021/07/07 05:28:24;;;;;;;5.05;1.63;;;;;;;17.68;100.00;100762.31;4939169;28;20215;-74
2021/07/07 05:30:50;;;;;;;3.40;2.40;;;;;;;17.74;100.00;100772.03;4938668;28;20719;-75
2021/07/07 05:33:15;;;;;;;3.70;1.60;;;;;;;17.71;100.00;100778.16;4964467;28;20634;-74
2021/07/07 05:35:41;;;;;;;2.33;1.40;;;;;;;17.82;100.00;100779.53;4964235;28;20230;-75
2021/07/07 05:38:06;;;;;;;3.80;2.20;;;;;;;17.96;100.00;100781.00;4959805;28;20207;-74
2021/07/07 05:40:32;;;;;;;2.50;1.50;;;;;;;18.11;100.00;100788.06;4935032;29;20286;-74
2021/07/07 05:43:01;;;;;;;1.88;1.40;;;;;;;18.00;100.00;100792.19;4962161;28;20183;-74
2021/07/07 05:45:27;;;;;;;2.70;1.40;;;;;;;18.13;100.00;100792.94;4935888;28;20611;-77
2021/07/07 05:47:53;;;;;;;2.15;1.35;;;;;;;18.26;100.00;100785.66;4942681;28;20178;-76
2021/07/07 05:50:19;;;;;;;3.75;1.52;;;;;;;18.27;100.00;100793.59;4969186;28;20191;-77
2021/07/07 05:52:47;;;;;;;3.17;1.30;;;;;;;18.48;100.00;100800.16;4944381;29;20183;-76
2021/07/07 05:55:15;;;;;;;2.28;1.33;;;;;;;18.46;100.00;100807.94;4935491;28;20290;-75
2021/07/07 05:57:41;;;;;;;3.30;1.50;;;;;;;18.49;100.00;100806.47;4954082;28;20194;-75
2021/07/07 06:00:11;;;;;;;4.47;1.40;;;;;;;18.60;100.00;100808.59;4952423;28;20836;-76
2021/07/07 06:02:37;;;;;;;3.60;1.38;;;;;;;18.72;100.00;100795.03;4969889;28;20237;-74
2021/07/07 06:05:04;;;;;;;1.95;1.30;;;;;;;18.88;100.00;100805.22;4994992;28;20597;-76
2021/07/07 06:07:32;;;;;;;1.70;1.10;;;;;;;18.97;100.00;100797.81;4953383;28;20244;-75
2021/07/07 06:09:57;;;;;;;3.45;1.30;;;;;;;19.26;100.00;100806.22;4955001;28;20210;-76
2021/07/07 06:12:23;;;;;;;3.08;1.67;;;;;;;19.20;100.00;100818.56;4957040;28;20218;-76
2021/07/07 06:14:51;;;;;;;2.42;1.20;;;;;;;19.41;100.00;100809.28;4970700;28;20265;-75
2021/07/07 06:17:17;;;;;;;3.55;1.50;;;;;;;19.56;100.00;100806.84;4954502;28;20260;-76
2021/07/07 06:19:50;;;;;;;2.92;1.33;;;;;;;19.52;100.00;100808.59;4972532;28;20210;-75
2021/07/07 06:22:20;;;;;;;5.00;1.25;;;;;;;19.58;100.00;100809.25;4950848;28;20225;-76
2021/07/07 06:24:51;;;;;;;4.68;1.90;;;;;;;19.62;100.00;100805.53;4989564;28;20675;-75
2021/07/07 06:27:18;;;;;;;2.92;1.48;;;;;;;19.54;100.00;100805.53;4954984;28;20281;-75
2021/07/07 06:29:47;;;;;;;2.03;1.25;;;;;;;19.55;100.00;100810.72;4955128;28;20253;-76
2021/07/07 06:32:18;;;;;;;2.30;1.40;;;;;;;19.52;100.00;100810.56;4953869;28;20233;-76
2021/07/07 06:34:43;;;;;;;4.15;1.20;;;;;;;19.72;100.00;100811.50;4963508;28;20217;-76
2021/07/07 06:37:12;;;;;;;1.83;1.00;;;;;;;19.93;100.00;100829.00;4967454;28;20959;-75
2021/07/07 06:39:37;;;;;;;1.65;1.15;;;;;;;19.88;100.00;100826.41;4960753;28;20765;-75
2021/07/07 06:42:06;;;;;;;3.38;1.23;;;;;;;20.17;99.53;100830.03;4969676;28;20225;-76
2021/07/07 06:44:32;;;;;;;2.50;1.00;;;;;;;20.17;100.00;100832.78;4970430;28;20242;-75
2021/07/07 06:46:59;;;;;;;2.35;1.40;;;;;;;19.99;100.00;100832.38;4971461;28;20704;-75
2021/07/07 06:49:27;;;;;;;2.65;1.10;;;;;;;20.02;100.00;100838.06;4946729;28;20260;-76
2021/07/07 06:51:55;;;;;;;3.42;1.00;;;;;;;20.05;100.00;100840.13;4980388;28;20225;-75
2021/07/07 06:54:26;;;;;;;2.47;0.80;;;;;;;20.25;100.00;100839.41;4980063;28;20210;-75
2021/07/07 06:56:52;;;;;;;2.10;1.10;;;;;;;20.29;100.00;100835.69;4969567;28;20237;-76
2021/07/07 06:59:20;;;;;;;3.03;1.10;;;;;;;20.50;99.49;100836.53;4970664;28;20206;-75
2021/07/07 07:01:48;;;;;;;2.33;1.10;;;;;;;20.68;97.98;100836.13;4968891;28;20746;-77
2021/07/07 07:04:14;;;;;;;2.45;1.05;;;;;;;20.86;96.28;100834.88;4954588;28;20182;-75
2021/07/07 07:06:42;;;;;;;3.30;1.13;;;;;;;20.94;96.97;100839.53;4979367;28;20244;-77
2021/07/07 07:09:12;;;;;;;2.55;1.10;;;;;;;20.73;95.39;100854.44;4955064;28;20224;-76
2021/07/07 07:11:39;;;;;;;1.98;1.00;;;;;;;20.74;94.14;100856.09;4968559;28;20618;-76
2021/07/07 07:14:05;;;;;;;2.05;1.17;;;;;;;21.33;93.59;100843.44;4954096;28;20335;-76
2021/07/07 07:16:30;;;;;;;1.60;1.10;;;;;;;21.65;91.58;100842.69;4953541;28;20226;-76
2021/07/07 07:19:01;;;;;;;2.10;1.20;;;;;;;21.78;86.79;100833.28;4970572;28;20241;-76
2021/07/07 07:21:27;;;;;;;3.33;1.27;;;;;;;21.95;82.96;100835.88;4973182;28;20284;-75
2021/07/07 07:23:52;;;;;;;2.05;1.10;;;;;;;22.07;81.18;100840.28;4971498;28;20170;-76
2021/07/07 07:26:18;;;;;;;2.70;1.10;;;;;;;21.44;79.76;100844.66;4953231;28;20226;-75
2021/07/07 07:28:44;;;;;;;2.72;1.20;;;;;;;21.28;83.62;100849.19;4954304;28;20261;-76
2021/07/07 07:31:10;;;;;;;2.10;1.20;;;;;;;21.22;83.31;100851.69;4952784;28;20228;-76
2021/07/07 07:33:37;;;;;;;2.42;1.00;;;;;;;21.45;83.55;100851.03;4972102;28;20293;-76
2021/07/07 07:36:10;;;;;;;3.00;1.00;;;;;;;21.76;82.63;100852.19;4947765;28;20221;-76
2021/07/07 07:38:43;;;;;;;1.95;0.90;;;;;;;21.57;80.13;100860.16;4970336;28;20276;-75
2021/07/07 07:41:14;;;;;;;2.40;1.10;;;;;;;21.45;78.23;100862.09;4953542;28;20308;-76
2021/07/07 07:43:40;;;;;;;2.55;1.20;;;;;;;21.54;77.49;100866.38;4970324;28;20181;-76
2021/07/07 07:46:06;;;;;;;1.25;1.10;;;;;;;21.68;77.11;100872.41;4934697;29;20728;-75
2021/07/07 07:48:33;;;;;;;3.72;1.10;;;;;;;21.47;74.72;100871.66;4951689;29;20327;-75
2021/07/07 07:51:01;;;;;;;2.25;0.93;;;;;;;22.00;76.78;100873.22;4970305;28;20231;-76
2021/07/07 07:53:29;;;;;;;2.78;0.80;;;;;;;21.87;75.01;100865.25;4974072;28;20301;-76
2021/07/07 07:55:57;;;;;;;3.83;0.90;;;;;;;21.94;72.36;100867.44;4948589;28;20229;-76
2021/07/07 07:58:22;;;;;;;2.28;1.05;;;;;;;22.27;69.83;100869.88;4971676;28;20201;-76
2021/07/07 08:00:49;;;;;;;1.83;0.77;;;;;;;22.41;65.68;100870.31;4953154;28;20221;-76
2021/07/07 08:03:14;;;;;;;1.35;0.70;;;;;;;22.56;64.09;100870.47;4954625;28;20175;-76
2021/07/07 08:05:43;;;;;;;2.05;0.80;;;;;;;22.48;65.56;100870.56;4956289;28;20220;-75
2021/07/07 08:08:11;;;;;;;2.38;0.70;;;;;;;22.96;63.49;100871.38;4976950;28;20212;-76
2021/07/07 08:10:37;;;;;;;1.10;0.70;;;;;;;22.68;64.17;100867.69;4964249;28;20219;-77
2021/07/07 08:13:05;;;;;;;3.85;0.80;;;;;;;22.97;66.28;100868.28;4940178;29;20211;-76
2021/07/07 08:15:34;;;;;;;0.95;0.70;;;;;;;23.19;65.72;100870.53;4966080;28;20353;-76
2021/07/07 08:18:02;;;;;;;1.65;0.88;;;;;;;23.32;62.40;100870.16;4958294;28;20222;-77
2021/07/07 08:20:27;;;;;;;2.30;0.77;;;;;;;23.01;61.96;100868.38;4976674;28;20229;-77
2021/07/07 08:22:55;;;;;;;3.50;0.80;;;;;;;22.90;61.37;100868.03;4952189;28;20194;-77
2021/07/07 08:25:21;;;;;;;1.13;0.90;;;;;;;22.99;66.44;100859.63;4944254;28;20191;-77
2021/07/07 08:27:49;;;;;;;3.05;1.10;;;;;;;23.21;64.29;100862.69;4972109;28;20187;-77
2021/07/07 08:30:15;;;;;;;2.08;0.90;;;;;;;23.46;63.67;100861.44;4974548;28;20599;-76
2021/07/07 08:32:40;;;;;;;3.90;1.15;;;;;;;23.43;63.85;100864.94;4960770;28;20191;-76
2021/07/07 08:35:09;;;;;;;2.53;1.02;;;;;;;23.70;61.50;100865.78;4987384;28;20194;-77
2021/07/07 08:37:37;;;;;;;3.63;1.13;;;;;;;23.64;64.99;100867.19;4975850;28;20193;-78
2021/07/07 08:40:04;;;;;;;2.40;0.80;;;;;;;23.77;64.57;100868.75;4977642;28;20214;-77
2021/07/07 08:42:34;;;;;;;2.38;1.08;;;;;;;24.25;64.11;100865.69;4947445;28;20273;-77
2021/07/07 08:45:03;;;;;;;2.28;1.00;;;;;;;24.24;61.25;100873.22;4981519;28;20664;-77
2021/07/07 08:47:33;;;;;;;2.90;1.08;;;;;;;24.10;59.53;100870.06;4962233;28;20725;-77
2021/07/07 08:49:59;;;;;;;2.75;1.05;;;;;;;24.23;64.08;100876.34;4952436;28;20708;-77
2021/07/07 08:52:25;;;;;;;2.47;1.00;;;;;;;24.30;60.77;100876.56;4969403;28;20230;-77
2021/07/07 08:54:50;;;;;;;3.35;1.17;;;;;;;24.61;60.27;100886.50;4943817;29;20217;-77
2021/07/07 08:57:21;;;;;;;3.78;0.90;;;;;;;24.61;57.71;100894.84;4965293;28;20218;-77
2021/07/07 08:59:47;;;;;;;1.77;1.02;;;;;;;24.44;55.22;100886.88;4947920;28;20618;-76
2021/07/07 09:02:17;;;;;;;3.88;1.00;;;;;;;24.62;58.66;100898.47;4949034;28;20288;-76
2021/07/07 09:04:44;;;;;;;1.52;1.00;;;;;;;24.44;57.59;100891.63;4974158;28;20281;-77
2021/07/07 09:07:24;;;;;;;3.80;1.13;;;;;;;24.14;56.16;100897.94;4963443;28;20218;-77
2021/07/07 09:09:51;;;;;;;3.67;1.10;;;;;;;24.32;57.47;100911.13;4961003;28;20268;-77
2021/07/07 09:12:20;;;;;;;4.35;1.10;;;;;;;24.35;56.57;100915.19;4956396;28;20272;-76
2021/07/07 09:14:47;;;;;;;2.50;1.30;;;;;;;24.42;57.81;100911.44;4956743;28;20214;-76
2021/07/07 09:17:17;;;;;;;2.20;1.30;;;;;;;24.50;55.11;100918.78;4939840;28;20716;-78
2021/07/07 09:19:45;;;;;;;3.45;1.00;;;;;;;24.63;53.74;100923.09;4958598;28;20210;-77
2021/07/07 09:22:11;;;;;;;2.60;0.95;;;;;;;24.49;54.23;100927.50;4966779;28;20206;-77
2021/07/07 09:24:45;;;;;;;3.45;0.90;;;;;;;24.47;52.57;100921.50;4976153;28;20196;-76
2021/07/07 09:27:17;;;;;;;3.80;1.10;;;;;;;24.86;54.79;100921.28;4963216;28;20218;-75
2021/07/07 09:29:49;;;;;;;3.92;1.25;;;;;;;24.79;52.93;100915.56;4941668;28;20785;-75
2021/07/07 09:32:29;;;;;;;4.82;1.10;;;;;;;25.03;52.71;100923.72;4972083;28;20222;-76
2021/07/07 09:35:06;;;;;;;2.65;1.10;;;;;;;24.56;52.14;100917.38;4966220;28;20206;-76
2021/07/07 09:37:37;;;;;;;3.53;1.15;;;;;;;24.79;51.33;100926.69;4964152;28;20850;-76
2021/07/07 09:40:04;;;;;;;3.53;1.20;;;;;;;24.74;49.07;100935.28;4975492;28;20206;-76
2021/07/07 09:42:34;;;;;;;3.63;1.10;;;;;;;24.50;51.31;100929.88;4944798;28;20623;-76
2021/07/07 09:45:00;;;;;;;3.30;1.30;;;;;;;24.39;52.32;100926.06;4962333;28;20183;-76
2021/07/07 09:47:26;;;;;;;3.03;1.73;;;;;;;24.56;51.77;100928.47;4951006;28;20225;-76
2021/07/07 09:49:54;;;;;;;3.20;1.10;;;;;;;25.10;50.12;100923.91;4978589;28;20587;-76
2021/07/07 09:52:22;;;;;;;4.30;1.30;;;;;;;25.39;49.35;100922.19;4972779;28;20217;-76
2021/07/07 09:54:50;;;;;;;3.78;1.13;;;;;;;24.73;48.37;100925.34;4980507;28;20581;-77
2021/07/07 09:57:19;;;;;;;3.28;1.08;;;;;;;24.18;49.30;100926.63;4969328;28;20272;-76
2021/07/07 09:59:47;;;;;;;2.97;1.35;;;;;;;24.32;50.25;100927.81;4958273;28;20202;-77
2021/07/07 10:02:15;;;;;;;2.92;1.20;;;;;;;24.95;48.76;100921.94;4972421;28;20220;-76
2021/07/07 10:04:44;;;;;;;4.03;1.10;;;;;;;25.37;49.05;100921.75;4951723;28;20172;-77
2021/07/07 10:07:10;;;;;;;4.57;1.10;;;;;;;25.67;48.89;100915.28;4981026;28;20228;-77
2021/07/07 10:09:47;;;;;;;2.80;1.20;;;;;;;26.05;48.84;100904.94;4942239;28;20210;-76
2021/07/07 10:12:13;;;;;;;3.42;1.27;;;;;;;26.71;49.52;100909.78;4955647;28;20584;-74
2021/07/07 10:14:41;;;;;;;3.42;1.23;;;;;;;26.72;48.20;100919.78;4941502;28;20207;-74
2021/07/07 10:17:09;;;;;;;7.45;4.28;;;;;;;26.34;46.75;100929.44;4949586;28;20218;-74
2021/07/07 10:19:35;;;;;;;4.60;1.60;;;;;;;26.08;45.90;100917.31;4955947;28;20593;-75
2021/07/07 10:22:01;;;;;;;5.03;1.17;;;;;;;25.95;45.50;100913.91;4953178;28;20306;-75
2021/07/07 10:24:29;;;;;;;4.55;1.30;;;;;;;26.08;45.74;100909.78;4955917;28;20198;-75
2021/07/07 10:26:57;;;;;;;2.03;1.00;;;;;;;25.81;46.08;100914.81;4955841;28;20237;-75
2021/07/07 10:29:25;;;;;;;5.40;1.27;;;;;;;26.22;45.71;100915.66;4949150;29;20750;-75
2021/07/07 10:31:59;;;;;;;3.13;1.15;;;;;;;26.47;47.54;100908.56;4950118;28;20227;-76
2021/07/07 10:34:26;;;;;;;3.40;1.10;;;;;;;26.63;46.24;100906.44;4930633;28;20217;-75
2021/07/07 10:36:52;;;;;;;4.85;1.25;;;;;;;27.03;43.69;100908.34;4963882;28;20573;-75
2021/07/07 10:39:23;;;;;;;3.83;1.05;;;;;;;26.88;46.12;100916.88;4954491;28;20221;-75
2021/07/07 10:41:52;;;;;;;4.90;1.20;;;;;;;26.79;44.95;100919.91;4954343;28;20823;-74
2021/07/07 10:44:24;;;;;;;5.22;1.42;;;;;;;26.27;45.61;100912.56;4970967;28;20207;-75
2021/07/07 10:46:50;;;;;;;5.15;1.23;;;;;;;25.38;48.09;100919.78;4971969;28;20292;-75
2021/07/07 10:49:20;;;;;;;4.18;1.20;;;;;;;25.41;48.17;100928.22;4971904;28;20206;-76
2021/07/07 10:51:51;;;;;;;3.78;1.20;;;;;;;25.15;48.13;100919.66;4946592;28;20276;-76
2021/07/07 10:54:27;;;;;;;4.00;1.40;;;;;;;25.85;49.36;100916.47;4972488;28;20300;-76
2021/07/07 10:56:55;;;;;;;3.15;1.38;;;;;;;26.89;47.99;100907.34;4939035;28;20225;-75
2021/07/07 10:59:34;;;;;;;3.65;1.20;;;;;;;27.30;47.38;100901.56;4933473;29;20225;-76
2021/07/07 11:02:10;;;;;;;4.10;1.00;;;;;;;26.79;43.43;100897.59;4934378;29;20226;-77
2021/07/07 11:05:02;;;;;;;3.90;1.73;;;;;;;26.11;45.94;100902.66;4980273;28;20272;-76
2021/07/07 11:07:41;;;;;;;4.10;1.15;;;;;;;25.91;47.33;100903.88;4956711;28;20248;-75
2021/07/07 11:10:12;;;;;;;3.55;1.02;;;;;;;26.21;45.97;100908.47;4969488;28;20212;-76
2021/07/07 11:12:39;;;;;;;5.97;1.10;;;;;;;26.59;45.47;100892.44;4955319;28;20636;-75
2021/07/07 11:15:14;;;;;;;4.20;1.33;;;;;;;26.92;46.09;100899.03;4970758;28;20210;-75
2021/07/07 11:17:47;;;;;;;1.73;0.90;;;;;;;26.43;45.55;100897.34;4954585;28;20605;-75
2021/07/07 11:20:16;;;;;;;3.17;1.02;;;;;;;26.25;44.90;100908.56;4942917;28;20190;-76
2021/07/07 11:22:44;;;;;;;3.70;1.30;;;;;;;26.09;46.97;100897.47;4981711;28;20786;-76